Aviation Digital Data Service (ADDS)

Output produced by METARs form (0028 UTC 19 October 2019)
found at http://www.aviationweather.gov/metar/data/
 
METAR text: WIII 190000Z 21003KT 5000 HZ FEW020 26/24 Q1011 NOSIG
Conditions at: WIII (SOEKARNO-HATTA I, ID) observed 0000 UTC 19 October 2019
Temperature: 26.0°C (79°F)
Dewpoint: 24.0°C (75°F) [RH = 89%]
Pressure (altimeter): 29.85 inches Hg (1011.0 mb)
Winds: from the SSW (210 degrees) at 3 MPH (3 knots; 1.5 m/s)
Visibility: 3 miles ( 5 km)
Ceiling: at least 12,000 feet AGL
Clouds: few clouds at 2000 feet AGL
Weather: HZ  (haze)

METAR text: WIII 182330Z 20002KT 5000 HZ FEW020 25/23 Q1011 NOSIG
Conditions at: WIII (SOEKARNO-HATTA I, ID) observed 2330 UTC 18 October 2019
Temperature: 25.0°C (77°F)
Dewpoint: 23.0°C (73°F) [RH = 89%]
Pressure (altimeter): 29.85 inches Hg (1011.0 mb)
Winds: from the SSW (200 degrees) at 2 MPH (2 knots; 1.0 m/s)
Visibility: 3 miles ( 5 km)
Ceiling: at least 12,000 feet AGL
Clouds: few clouds at 2000 feet AGL
Weather: HZ  (haze)

METAR text: WIII 182300Z 23002KT 5000 HZ FEW020 24/23 Q1010 NOSIG
Conditions at: WIII (SOEKARNO-HATTA I, ID) observed 2300 UTC 18 October 2019
Temperature: 24.0°C (75°F)
Dewpoint: 23.0°C (73°F) [RH = 94%]
Pressure (altimeter): 29.82 inches Hg (1010.0 mb)
Winds: from the SW (230 degrees) at 2 MPH (2 knots; 1.0 m/s)
Visibility: 3 miles ( 5 km)
Ceiling: at least 12,000 feet AGL
Clouds: few clouds at 2000 feet AGL
Weather: HZ  (haze)

METAR text: WIII 182230Z 21002KT 5000 HZ FEW020 24/23 Q1010 NOSIG
Conditions at: WIII (SOEKARNO-HATTA I, ID) observed 2230 UTC 18 October 2019
Temperature: 24.0°C (75°F)
Dewpoint: 23.0°C (73°F) [RH = 94%]
Pressure (altimeter): 29.82 inches Hg (1010.0 mb)
Winds: from the SSW (210 degrees) at 2 MPH (2 knots; 1.0 m/s)
Visibility: 3 miles ( 5 km)
Ceiling: at least 12,000 feet AGL
Clouds: few clouds at 2000 feet AGL
Weather: HZ  (haze)

METAR text: WIII 182200Z 21002KT 5000 HZ FEW020 25/23 Q1009 NOSIG
Conditions at: WIII (SOEKARNO-HATTA I, ID) observed 2200 UTC 18 October 2019
Temperature: 25.0°C (77°F)
Dewpoint: 23.0°C (73°F) [RH = 89%]
Pressure (altimeter): 29.79 inches Hg (1009.0 mb)
Winds: from the SSW (210 degrees) at 2 MPH (2 knots; 1.0 m/s)
Visibility: 3 miles ( 5 km)
Ceiling: at least 12,000 feet AGL
Clouds: few clouds at 2000 feet AGL
Weather: HZ  (haze)

METAR text: WIII 182130Z VRB03KT 5000 HZ FEW020 24/23 Q1009 NOSIG
Conditions at: WIII (SOEKARNO-HATTA I, ID) observed 2130 UTC 18 October 2019
Temperature: 24.0°C (75°F)
Dewpoint: 23.0°C (73°F) [RH = 94%]
Pressure (altimeter): 29.79 inches Hg (1009.0 mb)
Winds: variable direction winds at 3 MPH (3 knots; 1.5 m/s)
Visibility: 3 miles ( 5 km)
Ceiling: at least 12,000 feet AGL
Clouds: few clouds at 2000 feet AGL
Weather: HZ  (haze)

METAR text: WIII 182100Z VRB02KT 5000 HZ FEW020 25/23 Q1009 NOSIG
Conditions at: WIII (SOEKARNO-HATTA I, ID) observed 2100 UTC 18 October 2019
Temperature: 25.0°C (77°F)
Dewpoint: 23.0°C (73°F) [RH = 89%]
Pressure (altimeter): 29.79 inches Hg (1009.0 mb)
Winds: variable direction winds at 2 MPH (2 knots; 1.0 m/s)
Visibility: 3 miles ( 5 km)
Ceiling: at least 12,000 feet AGL
Clouds: few clouds at 2000 feet AGL
Weather: HZ  (haze)

METAR text: WIII 182030Z 20002KT 4200 HZ FEW020 25/23 Q1009 NOSIG
Conditions at: WIII (SOEKARNO-HATTA I, ID) observed 2030 UTC 18 October 2019
Temperature: 25.0°C (77°F)
Dewpoint: 23.0°C (73°F) [RH = 89%]
Pressure (altimeter): 29.79 inches Hg (1009.0 mb)
Winds: from the SSW (200 degrees) at 2 MPH (2 knots; 1.0 m/s)
Visibility: 2.61 miles (4.20 km)
Ceiling: at least 12,000 feet AGL
Clouds: few clouds at 2000 feet AGL
Weather: HZ  (haze)

METAR text: WIII 182000Z 20003KT 5000 HZ FEW020 25/23 Q1009 NOSIG
Conditions at: WIII (SOEKARNO-HATTA I, ID) observed 2000 UTC 18 October 2019
Temperature: 25.0°C (77°F)
Dewpoint: 23.0°C (73°F) [RH = 89%]
Pressure (altimeter): 29.79 inches Hg (1009.0 mb)
Winds: from the SSW (200 degrees) at 3 MPH (3 knots; 1.5 m/s)
Visibility: 3 miles ( 5 km)
Ceiling: at least 12,000 feet AGL
Clouds: few clouds at 2000 feet AGL
Weather: HZ  (haze)

METAR text: WIII 181930Z 21003KT 4100 HZ FEW020 25/24 Q1009 NOSIG
Conditions at: WIII (SOEKARNO-HATTA I, ID) observed 1930 UTC 18 October 2019
Temperature: 25.0°C (77°F)
Dewpoint: 24.0°C (75°F) [RH = 94%]
Pressure (altimeter): 29.79 inches Hg (1009.0 mb)
Winds: from the SSW (210 degrees) at 3 MPH (3 knots; 1.5 m/s)
Visibility: 2.55 miles (4.10 km)
Ceiling: at least 12,000 feet AGL
Clouds: few clouds at 2000 feet AGL
Weather: HZ  (haze)

METAR text: WIII 181900Z 20003KT 5000 HZ FEW020 25/23 Q1009 NOSIG
Conditions at: WIII (SOEKARNO-HATTA I, ID) observed 1900 UTC 18 October 2019
Temperature: 25.0°C (77°F)
Dewpoint: 23.0°C (73°F) [RH = 89%]
Pressure (altimeter): 29.79 inches Hg (1009.0 mb)
Winds: from the SSW (200 degrees) at 3 MPH (3 knots; 1.5 m/s)
Visibility: 3 miles ( 5 km)
Ceiling: at least 12,000 feet AGL
Clouds: few clouds at 2000 feet AGL
Weather: HZ  (haze)

METAR text: WIII 181830Z VRB02KT 6000 SCT020 25/23 Q1009 NOSIG
Conditions at: WIII (SOEKARNO-HATTA I, ID) observed 1830 UTC 18 October 2019
Temperature: 25.0°C (77°F)
Dewpoint: 23.0°C (73°F) [RH = 89%]
Pressure (altimeter): 29.79 inches Hg (1009.0 mb)
Winds: variable direction winds at 2 MPH (2 knots; 1.0 m/s)
Visibility: 4 miles ( 6 km)
Ceiling: at least 12,000 feet AGL
Clouds: scattered clouds at 2000 feet AGL
Weather: no significant weather observed at this time

METAR text: WIII 181800Z 18004KT 6000 SCT020 25/23 Q1010 RERA NOSIG
Conditions at: WIII (SOEKARNO-HATTA I, ID) observed 1800 UTC 18 October 2019
Temperature: 25.0°C (77°F)
Dewpoint: 23.0°C (73°F) [RH = 89%]
Pressure (altimeter): 29.82 inches Hg (1010.0 mb)
Winds: from the S (180 degrees) at 5 MPH (4 knots; 2.1 m/s)
Visibility: 4 miles ( 6 km)
Ceiling: at least 12,000 feet AGL
Clouds: scattered clouds at 2000 feet AGL
Weather: no significant weather observed at this time

METAR text: WIII 181730Z 21003KT 5000 -RA BKN020 25/24 Q1010 BECMG TL1800 HZ
Conditions at: WIII (SOEKARNO-HATTA I, ID) observed 1730 UTC 18 October 2019
Temperature: 25.0°C (77°F)
Dewpoint: 24.0°C (75°F) [RH = 94%]
Pressure (altimeter): 29.82 inches Hg (1010.0 mb)
Winds: from the SSW (210 degrees) at 3 MPH (3 knots; 1.5 m/s)
Visibility: 3 miles ( 5 km)
Ceiling: 2000 feet AGL
Clouds: broken clouds at 2000 feet AGL
Weather: -RA  (light rain)

METAR text: WIII 181700Z VRB04KT 5000 -RA BKN020 26/24 Q1010 BECMG TL1800
Conditions at: WIII (SOEKARNO-HATTA I, ID) observed 1700 UTC 18 October 2019
Temperature: 26.0°C (79°F)
Dewpoint: 24.0°C (75°F) [RH = 89%]
Pressure (altimeter): 29.82 inches Hg (1010.0 mb)
Winds: variable direction winds at 5 MPH (4 knots; 2.1 m/s)
Visibility: 3 miles ( 5 km)
Ceiling: 2000 feet AGL
Clouds: broken clouds at 2000 feet AGL
Weather: -RA  (light rain)

METAR text: WIII 181630Z 34004KT 7000 SCT020 28/24 Q1010 NOSIG
Conditions at: WIII (SOEKARNO-HATTA I, ID) observed 1630 UTC 18 October 2019
Temperature: 28.0°C (82°F)
Dewpoint: 24.0°C (75°F) [RH = 79%]
Pressure (altimeter): 29.82 inches Hg (1010.0 mb)
Winds: from the NNW (340 degrees) at 5 MPH (4 knots; 2.1 m/s)
Visibility: 4 miles ( 7 km)
Ceiling: at least 12,000 feet AGL
Clouds: scattered clouds at 2000 feet AGL
Weather: no significant weather observed at this time

METAR text: WIII 181600Z VRB03KT 7000 SCT020 28/24 Q1010 NOSIG
Conditions at: WIII (SOEKARNO-HATTA I, ID) observed 1600 UTC 18 October 2019
Temperature: 28.0°C (82°F)
Dewpoint: 24.0°C (75°F) [RH = 79%]
Pressure (altimeter): 29.82 inches Hg (1010.0 mb)
Winds: variable direction winds at 3 MPH (3 knots; 1.5 m/s)
Visibility: 4 miles ( 7 km)
Ceiling: at least 12,000 feet AGL
Clouds: scattered clouds at 2000 feet AGL
Weather: no significant weather observed at this time

METAR text: WIII 181530Z 04004KT 7000 SCT020 28/23 Q1011 NOSIG
Conditions at: WIII (SOEKARNO-HATTA I, ID) observed 1530 UTC 18 October 2019
Temperature: 28.0°C (82°F)
Dewpoint: 23.0°C (73°F) [RH = 74%]
Pressure (altimeter): 29.85 inches Hg (1011.0 mb)
Winds: from the NE (40 degrees) at 5 MPH (4 knots; 2.1 m/s)
Visibility: 4 miles ( 7 km)
Ceiling: at least 12,000 feet AGL
Clouds: scattered clouds at 2000 feet AGL
Weather: no significant weather observed at this time

METAR text: WIII 181500Z 01003KT 7000 SCT020 28/24 Q1011 NOSIG
Conditions at: WIII (SOEKARNO-HATTA I, ID) observed 1500 UTC 18 October 2019
Temperature: 28.0°C (82°F)
Dewpoint: 24.0°C (75°F) [RH = 79%]
Pressure (altimeter): 29.85 inches Hg (1011.0 mb)
Winds: from the N (10 degrees) at 3 MPH (3 knots; 1.5 m/s)
Visibility: 4 miles ( 7 km)
Ceiling: at least 12,000 feet AGL
Clouds: scattered clouds at 2000 feet AGL
Weather: no significant weather observed at this time

METAR text: WIII 181430Z VRB02KT 7000 SCT020 28/24 Q1011 NOSIG
Conditions at: WIII (SOEKARNO-HATTA I, ID) observed 1430 UTC 18 October 2019
Temperature: 28.0°C (82°F)
Dewpoint: 24.0°C (75°F) [RH = 79%]
Pressure (altimeter): 29.85 inches Hg (1011.0 mb)
Winds: variable direction winds at 2 MPH (2 knots; 1.0 m/s)
Visibility: 4 miles ( 7 km)
Ceiling: at least 12,000 feet AGL
Clouds: scattered clouds at 2000 feet AGL
Weather: no significant weather observed at this time

METAR text: WIII 181400Z VRB03KT 7000 SCT020 28/24 Q1010 NOSIG
Conditions at: WIII (SOEKARNO-HATTA I, ID) observed 1400 UTC 18 October 2019
Temperature: 28.0°C (82°F)
Dewpoint: 24.0°C (75°F) [RH = 79%]
Pressure (altimeter): 29.82 inches Hg (1010.0 mb)
Winds: variable direction winds at 3 MPH (3 knots; 1.5 m/s)
Visibility: 4 miles ( 7 km)
Ceiling: at least 12,000 feet AGL
Clouds: scattered clouds at 2000 feet AGL
Weather: no significant weather observed at this time

METAR text: WIII 181330Z 36003KT 7000 FEW020 29/24 Q1010 NOSIG
Conditions at: WIII (SOEKARNO-HATTA I, ID) observed 1330 UTC 18 October 2019
Temperature: 29.0°C (84°F)
Dewpoint: 24.0°C (75°F) [RH = 74%]
Pressure (altimeter): 29.82 inches Hg (1010.0 mb)
Winds: from the N (360 degrees) at 3 MPH (3 knots; 1.5 m/s)
Visibility: 4 miles ( 7 km)
Ceiling: at least 12,000 feet AGL
Clouds: few clouds at 2000 feet AGL
Weather: no significant weather observed at this time

METAR text: WIII 181300Z VRB03KT 7000 SCT020 29/23 Q1010 NOSIG
Conditions at: WIII (SOEKARNO-HATTA I, ID) observed 1300 UTC 18 October 2019
Temperature: 29.0°C (84°F)
Dewpoint: 23.0°C (73°F) [RH = 70%]
Pressure (altimeter): 29.82 inches Hg (1010.0 mb)
Winds: variable direction winds at 3 MPH (3 knots; 1.5 m/s)
Visibility: 4 miles ( 7 km)
Ceiling: at least 12,000 feet AGL
Clouds: scattered clouds at 2000 feet AGL
Weather: no significant weather observed at this time

METAR text: WIII 181230Z VRB03KT 8000 SCT020 29/23 Q1009 NOSIG
Conditions at: WIII (SOEKARNO-HATTA I, ID) observed 1230 UTC 18 October 2019
Temperature: 29.0°C (84°F)
Dewpoint: 23.0°C (73°F) [RH = 70%]
Pressure (altimeter): 29.79 inches Hg (1009.0 mb)
Winds: variable direction winds at 3 MPH (3 knots; 1.5 m/s)
Visibility: 5 miles ( 8 km)
Ceiling: at least 12,000 feet AGL
Clouds: scattered clouds at 2000 feet AGL
Weather: no significant weather observed at this time

METAR text: WIII 181200Z 36004KT 8000 SCT020 29/23 Q1009 NOSIG
Conditions at: WIII (SOEKARNO-HATTA I, ID) observed 1200 UTC 18 October 2019
Temperature: 29.0°C (84°F)
Dewpoint: 23.0°C (73°F) [RH = 70%]
Pressure (altimeter): 29.79 inches Hg (1009.0 mb)
Winds: from the N (360 degrees) at 5 MPH (4 knots; 2.1 m/s)
Visibility: 5 miles ( 8 km)
Ceiling: at least 12,000 feet AGL
Clouds: scattered clouds at 2000 feet AGL
Weather: no significant weather observed at this time

METAR text: WIII 181130Z 36005KT 8000 SCT020 29/23 Q1009 NOSIG
Conditions at: WIII (SOEKARNO-HATTA I, ID) observed 1130 UTC 18 October 2019
Temperature: 29.0°C (84°F)
Dewpoint: 23.0°C (73°F) [RH = 70%]
Pressure (altimeter): 29.79 inches Hg (1009.0 mb)
Winds: from the N (360 degrees) at 6 MPH (5 knots; 2.6 m/s)
Visibility: 5 miles ( 8 km)
Ceiling: at least 12,000 feet AGL
Clouds: scattered clouds at 2000 feet AGL
Weather: no significant weather observed at this time

METAR text: WIII 181100Z VRB04KT 8000 SCT020 29/22 Q1008 NOSIG
Conditions at: WIII (SOEKARNO-HATTA I, ID) observed 1100 UTC 18 October 2019
Temperature: 29.0°C (84°F)
Dewpoint: 22.0°C (72°F) [RH = 66%]
Pressure (altimeter): 29.76 inches Hg (1008.0 mb)
Winds: variable direction winds at 5 MPH (4 knots; 2.1 m/s)
Visibility: 5 miles ( 8 km)
Ceiling: at least 12,000 feet AGL
Clouds: scattered clouds at 2000 feet AGL
Weather: no significant weather observed at this time

METAR text: WIII 181030Z VRB04KT 9999 SCT020 29/22 Q1008 NOSIG
Conditions at: WIII (SOEKARNO-HATTA I, ID) observed 1030 UTC 18 October 2019
Temperature: 29.0°C (84°F)
Dewpoint: 22.0°C (72°F) [RH = 66%]
Pressure (altimeter): 29.76 inches Hg (1008.0 mb)
Winds: variable direction winds at 5 MPH (4 knots; 2.1 m/s)
Visibility: 6 or more miles (10+ km)
Ceiling: at least 12,000 feet AGL
Clouds: scattered clouds at 2000 feet AGL
Weather: no significant weather observed at this time

METAR text: WIII 181000Z VRB05KT 9999 SCT020 30/22 Q1008 NOSIG
Conditions at: WIII (SOEKARNO-HATTA I, ID) observed 1000 UTC 18 October 2019
Temperature: 30.0°C (86°F)
Dewpoint: 22.0°C (72°F) [RH = 62%]
Pressure (altimeter): 29.76 inches Hg (1008.0 mb)
Winds: variable direction winds at 6 MPH (5 knots; 2.6 m/s)
Visibility: 6 or more miles (10+ km)
Ceiling: at least 12,000 feet AGL
Clouds: scattered clouds at 2000 feet AGL
Weather: no significant weather observed at this time

METAR text: WIII 180930Z 34007KT 9999 SCT020 30/22 Q1007 NOSIG
Conditions at: WIII (SOEKARNO-HATTA I, ID) observed 0930 UTC 18 October 2019
Temperature: 30.0°C (86°F)
Dewpoint: 22.0°C (72°F) [RH = 62%]
Pressure (altimeter): 29.73 inches Hg (1007.0 mb)
Winds: from the NNW (340 degrees) at 8 MPH (7 knots; 3.6 m/s)
Visibility: 6 or more miles (10+ km)
Ceiling: at least 12,000 feet AGL
Clouds: scattered clouds at 2000 feet AGL
Weather: no significant weather observed at this time

METAR text: WIII 180900Z 34008KT 310V010 9999 FEW020 31/22 Q1007 NOSIG
Conditions at: WIII (SOEKARNO-HATTA I, ID) observed 0900 UTC 18 October 2019
Temperature: 31.0°C (88°F)
Dewpoint: 22.0°C (72°F) [RH = 59%]
Pressure (altimeter): 29.73 inches Hg (1007.0 mb)
Winds: from the NNW (340 degrees) at 9 MPH (8 knots; 4.1 m/s)
Visibility: 6 or more miles (10+ km)
Ceiling: at least 12,000 feet AGL
Clouds: few clouds at 2000 feet AGL
Weather: no significant weather observed at this time

METAR text: WIII 180830Z 36008KT 9999 SCT020 31/22 Q1007 NOSIG
Conditions at: WIII (SOEKARNO-HATTA I, ID) observed 0830 UTC 18 October 2019
Temperature: 31.0°C (88°F)
Dewpoint: 22.0°C (72°F) [RH = 59%]
Pressure (altimeter): 29.73 inches Hg (1007.0 mb)
Winds: from the N (360 degrees) at 9 MPH (8 knots; 4.1 m/s)
Visibility: 6 or more miles (10+ km)
Ceiling: at least 12,000 feet AGL
Clouds: scattered clouds at 2000 feet AGL
Weather: no significant weather observed at this time

METAR text: WIII 180800Z 01009KT 330V040 9999 SCT020 32/22 Q1007 NOSIG
Conditions at: WIII (SOEKARNO-HATTA I, ID) observed 0800 UTC 18 October 2019
Temperature: 32.0°C (90°F)
Dewpoint: 22.0°C (72°F) [RH = 56%]
Pressure (altimeter): 29.73 inches Hg (1007.0 mb)
Winds: from the N (10 degrees) at 10 MPH (9 knots; 4.6 m/s)
Visibility: 6 or more miles (10+ km)
Ceiling: at least 12,000 feet AGL
Clouds: scattered clouds at 2000 feet AGL
Weather: no significant weather observed at this time

METAR text: WIII 180730Z 35009KT 9999 SCT020 32/22 Q1008 NOSIG
Conditions at: WIII (SOEKARNO-HATTA I, ID) observed 0730 UTC 18 October 2019
Temperature: 32.0°C (90°F)
Dewpoint: 22.0°C (72°F) [RH = 56%]
Pressure (altimeter): 29.76 inches Hg (1008.0 mb)
Winds: from the N (350 degrees) at 10 MPH (9 knots; 4.6 m/s)
Visibility: 6 or more miles (10+ km)
Ceiling: at least 12,000 feet AGL
Clouds: scattered clouds at 2000 feet AGL
Weather: no significant weather observed at this time

METAR text: WIII 180700Z 01009KT 9999 SCT020 32/22 Q1008 NOSIG
Conditions at: WIII (SOEKARNO-HATTA I, ID) observed 0700 UTC 18 October 2019
Temperature: 32.0°C (90°F)
Dewpoint: 22.0°C (72°F) [RH = 56%]
Pressure (altimeter): 29.76 inches Hg (1008.0 mb)
Winds: from the N (10 degrees) at 10 MPH (9 knots; 4.6 m/s)
Visibility: 6 or more miles (10+ km)
Ceiling: at least 12,000 feet AGL
Clouds: scattered clouds at 2000 feet AGL
Weather: no significant weather observed at this time

METAR text: WIII 180630Z 01007G17KT 9999 SCT020 32/23 Q1008 NOSIG
Conditions at: WIII (SOEKARNO-HATTA I, ID) observed 0630 UTC 18 October 2019
Temperature: 32.0°C (90°F)
Dewpoint: 23.0°C (73°F) [RH = 59%]
Pressure (altimeter): 29.76 inches Hg (1008.0 mb)
Winds: from the N (10 degrees) at 8 MPH (7 knots; 3.6 m/s)
gusting to 20 MPH (17 knots; 8.7 m/s)
Visibility: 6 or more miles (10+ km)
Ceiling: at least 12,000 feet AGL
Clouds: scattered clouds at 2000 feet AGL
Weather: no significant weather observed at this time

METAR text: WIII 180600Z 36009KT 320V040 9999 SCT020 33/23 Q1008 NOSIG
Conditions at: WIII (SOEKARNO-HATTA I, ID) observed 0600 UTC 18 October 2019
Temperature: 33.0°C (91°F)
Dewpoint: 23.0°C (73°F) [RH = 56%]
Pressure (altimeter): 29.76 inches Hg (1008.0 mb)
Winds: from the N (360 degrees) at 10 MPH (9 knots; 4.6 m/s)
Visibility: 6 or more miles (10+ km)
Ceiling: at least 12,000 feet AGL
Clouds: scattered clouds at 2000 feet AGL
Weather: no significant weather observed at this time

METAR text: WIII 180530Z 01009KT 340V040 9999 FEW020 33/23 Q1009 NOSIG
Conditions at: WIII (SOEKARNO-HATTA I, ID) observed 0530 UTC 18 October 2019
Temperature: 33.0°C (91°F)
Dewpoint: 23.0°C (73°F) [RH = 56%]
Pressure (altimeter): 29.79 inches Hg (1009.0 mb)
Winds: from the N (10 degrees) at 10 MPH (9 knots; 4.6 m/s)
Visibility: 6 or more miles (10+ km)
Ceiling: at least 12,000 feet AGL
Clouds: few clouds at 2000 feet AGL
Weather: no significant weather observed at this time

METAR text: WIII 180500Z 04008KT 360V070 9999 SCT020 32/22 Q1009 NOSIG
Conditions at: WIII (SOEKARNO-HATTA I, ID) observed 0500 UTC 18 October 2019
Temperature: 32.0°C (90°F)
Dewpoint: 22.0°C (72°F) [RH = 56%]
Pressure (altimeter): 29.79 inches Hg (1009.0 mb)
Winds: from the NE (40 degrees) at 9 MPH (8 knots; 4.1 m/s)
Visibility: 6 or more miles (10+ km)
Ceiling: at least 12,000 feet AGL
Clouds: scattered clouds at 2000 feet AGL
Weather: no significant weather observed at this time

METAR text: WIII 180430Z 04007KT 9999 SCT020 33/23 Q1010 NOSIG
Conditions at: WIII (SOEKARNO-HATTA I, ID) observed 0430 UTC 18 October 2019
Temperature: 33.0°C (91°F)
Dewpoint: 23.0°C (73°F) [RH = 56%]
Pressure (altimeter): 29.82 inches Hg (1010.0 mb)
Winds: from the NE (40 degrees) at 8 MPH (7 knots; 3.6 m/s)
Visibility: 6 or more miles (10+ km)
Ceiling: at least 12,000 feet AGL
Clouds: scattered clouds at 2000 feet AGL
Weather: no significant weather observed at this time

METAR text: WIII 180400Z 03007KT 340V070 8000 SCT020 32/23 Q1010 NOSIG
Conditions at: WIII (SOEKARNO-HATTA I, ID) observed 0400 UTC 18 October 2019
Temperature: 32.0°C (90°F)
Dewpoint: 23.0°C (73°F) [RH = 59%]
Pressure (altimeter): 29.82 inches Hg (1010.0 mb)
Winds: from the NNE (30 degrees) at 8 MPH (7 knots; 3.6 m/s)
Visibility: 5 miles ( 8 km)
Ceiling: at least 12,000 feet AGL
Clouds: scattered clouds at 2000 feet AGL
Weather: no significant weather observed at this time

METAR text: WIII 180330Z 05009KT 8000 BKN022 31/23 Q1011 NOSIG
Conditions at: WIII (SOEKARNO-HATTA I, ID) observed 0330 UTC 18 October 2019
Temperature: 31.0°C (88°F)
Dewpoint: 23.0°C (73°F) [RH = 63%]
Pressure (altimeter): 29.85 inches Hg (1011.0 mb)
Winds: from the NE (50 degrees) at 10 MPH (9 knots; 4.6 m/s)
Visibility: 5 miles ( 8 km)
Ceiling: 2200 feet AGL
Clouds: broken clouds at 2200 feet AGL
Weather: no significant weather observed at this time

METAR text: WIII 180300Z 03006KT 350V090 8000 SCT020 31/23 Q1011 NOSIG
Conditions at: WIII (SOEKARNO-HATTA I, ID) observed 0300 UTC 18 October 2019
Temperature: 31.0°C (88°F)
Dewpoint: 23.0°C (73°F) [RH = 63%]
Pressure (altimeter): 29.85 inches Hg (1011.0 mb)
Winds: from the NNE (30 degrees) at 7 MPH (6 knots; 3.1 m/s)
Visibility: 5 miles ( 8 km)
Ceiling: at least 12,000 feet AGL
Clouds: scattered clouds at 2000 feet AGL
Weather: no significant weather observed at this time

METAR text: WIII 180230Z VRB04KT 8000 SCT020 30/23 Q1011 NOSIG
Conditions at: WIII (SOEKARNO-HATTA I, ID) observed 0230 UTC 18 October 2019
Temperature: 30.0°C (86°F)
Dewpoint: 23.0°C (73°F) [RH = 66%]
Pressure (altimeter): 29.85 inches Hg (1011.0 mb)
Winds: variable direction winds at 5 MPH (4 knots; 2.1 m/s)
Visibility: 5 miles ( 8 km)
Ceiling: at least 12,000 feet AGL
Clouds: scattered clouds at 2000 feet AGL
Weather: no significant weather observed at this time

METAR text: WIII 180200Z VRB03KT 8000 SCT020 30/23 Q1011 NOSIG
Conditions at: WIII (SOEKARNO-HATTA I, ID) observed 0200 UTC 18 October 2019
Temperature: 30.0°C (86°F)
Dewpoint: 23.0°C (73°F) [RH = 66%]
Pressure (altimeter): 29.85 inches Hg (1011.0 mb)
Winds: variable direction winds at 3 MPH (3 knots; 1.5 m/s)
Visibility: 5 miles ( 8 km)
Ceiling: at least 12,000 feet AGL
Clouds: scattered clouds at 2000 feet AGL
Weather: no significant weather observed at this time

METAR text: WIII 180130Z VRB04KT 7000 FEW020 29/23 Q1011 NOSIG
Conditions at: WIII (SOEKARNO-HATTA I, ID) observed 0130 UTC 18 October 2019
Temperature: 29.0°C (84°F)
Dewpoint: 23.0°C (73°F) [RH = 70%]
Pressure (altimeter): 29.85 inches Hg (1011.0 mb)
Winds: variable direction winds at 5 MPH (4 knots; 2.1 m/s)
Visibility: 4 miles ( 7 km)
Ceiling: at least 12,000 feet AGL
Clouds: few clouds at 2000 feet AGL
Weather: no significant weather observed at this time

METAR text: WIII 180100Z VRB05KT 7000 FEW020 29/22 Q1011 NOSIG
Conditions at: WIII (SOEKARNO-HATTA I, ID) observed 0100 UTC 18 October 2019
Temperature: 29.0°C (84°F)
Dewpoint: 22.0°C (72°F) [RH = 66%]
Pressure (altimeter): 29.85 inches Hg (1011.0 mb)
Winds: variable direction winds at 6 MPH (5 knots; 2.6 m/s)
Visibility: 4 miles ( 7 km)
Ceiling: at least 12,000 feet AGL
Clouds: few clouds at 2000 feet AGL
Weather: no significant weather observed at this time

METAR text: WIII 180030Z VRB05KT 5000 HZ FEW020 27/23 Q1011 NOSIG
Conditions at: WIII (SOEKARNO-HATTA I, ID) observed 0030 UTC 18 October 2019
Temperature: 27.0°C (81°F)
Dewpoint: 23.0°C (73°F) [RH = 79%]
Pressure (altimeter): 29.85 inches Hg (1011.0 mb)
Winds: variable direction winds at 6 MPH (5 knots; 2.6 m/s)
Visibility: 3 miles ( 5 km)
Ceiling: at least 12,000 feet AGL
Clouds: few clouds at 2000 feet AGL
Weather: HZ  (haze)

METAR text: WIII 180000Z VRB03KT 6000 FEW020 26/23 Q1010 NOSIG
Conditions at: WIII (SOEKARNO-HATTA I, ID) observed 0000 UTC 18 October 2019
Temperature: 26.0°C (79°F)
Dewpoint: 23.0°C (73°F) [RH = 84%]
Pressure (altimeter): 29.82 inches Hg (1010.0 mb)
Winds: variable direction winds at 3 MPH (3 knots; 1.5 m/s)
Visibility: 4 miles ( 6 km)
Ceiling: at least 12,000 feet AGL
Clouds: few clouds at 2000 feet AGL
Weather: no significant weather observed at this time

METAR text: WIII 172330Z VRB02KT 5000 BR FEW020 25/23 Q1010 NOSIG
Conditions at: WIII (SOEKARNO-HATTA I, ID) observed 2330 UTC 17 October 2019
Temperature: 25.0°C (77°F)
Dewpoint: 23.0°C (73°F) [RH = 89%]
Pressure (altimeter): 29.82 inches Hg (1010.0 mb)
Winds: variable direction winds at 2 MPH (2 knots; 1.0 m/s)
Visibility: 3 miles ( 5 km)
Ceiling: at least 12,000 feet AGL
Clouds: few clouds at 2000 feet AGL
Weather: BR  (mist)

METAR text: WIII 172300Z VRB03KT 5000 BR FEW020 25/23 Q1010 NOSIG
Conditions at: WIII (SOEKARNO-HATTA I, ID) observed 2300 UTC 17 October 2019
Temperature: 25.0°C (77°F)
Dewpoint: 23.0°C (73°F) [RH = 89%]
Pressure (altimeter): 29.82 inches Hg (1010.0 mb)
Winds: variable direction winds at 3 MPH (3 knots; 1.5 m/s)
Visibility: 3 miles ( 5 km)
Ceiling: at least 12,000 feet AGL
Clouds: few clouds at 2000 feet AGL
Weather: BR  (mist)

METAR text: WIII 172230Z 20003KT 5000 BR FEW020 25/23 Q1009 NOSIG
Conditions at: WIII (SOEKARNO-HATTA I, ID) observed 2230 UTC 17 October 2019
Temperature: 25.0°C (77°F)
Dewpoint: 23.0°C (73°F) [RH = 89%]
Pressure (altimeter): 29.79 inches Hg (1009.0 mb)
Winds: from the SSW (200 degrees) at 3 MPH (3 knots; 1.5 m/s)
Visibility: 3 miles ( 5 km)
Ceiling: at least 12,000 feet AGL
Clouds: few clouds at 2000 feet AGL
Weather: BR  (mist)

METAR text: WIII 172200Z VRB02KT 5000 BR FEW020 25/23 Q1009 NOSIG
Conditions at: WIII (SOEKARNO-HATTA I, ID) observed 2200 UTC 17 October 2019
Temperature: 25.0°C (77°F)
Dewpoint: 23.0°C (73°F) [RH = 89%]
Pressure (altimeter): 29.79 inches Hg (1009.0 mb)
Winds: variable direction winds at 2 MPH (2 knots; 1.0 m/s)
Visibility: 3 miles ( 5 km)
Ceiling: at least 12,000 feet AGL
Clouds: few clouds at 2000 feet AGL
Weather: BR  (mist)

METAR text: WIII 172130Z 16002KT 5000 BR FEW020 25/23 Q1009 NOSIG
Conditions at: WIII (SOEKARNO-HATTA I, ID) observed 2130 UTC 17 October 2019
Temperature: 25.0°C (77°F)
Dewpoint: 23.0°C (73°F) [RH = 89%]
Pressure (altimeter): 29.79 inches Hg (1009.0 mb)
Winds: from the SSE (160 degrees) at 2 MPH (2 knots; 1.0 m/s)
Visibility: 3 miles ( 5 km)
Ceiling: at least 12,000 feet AGL
Clouds: few clouds at 2000 feet AGL
Weather: BR  (mist)

METAR text: WIII 172100Z 18003KT 5000 BR FEW020 25/23 Q1009 NOSIG
Conditions at: WIII (SOEKARNO-HATTA I, ID) observed 2100 UTC 17 October 2019
Temperature: 25.0°C (77°F)
Dewpoint: 23.0°C (73°F) [RH = 89%]
Pressure (altimeter): 29.79 inches Hg (1009.0 mb)
Winds: from the S (180 degrees) at 3 MPH (3 knots; 1.5 m/s)
Visibility: 3 miles ( 5 km)
Ceiling: at least 12,000 feet AGL
Clouds: few clouds at 2000 feet AGL
Weather: BR  (mist)

METAR text: WIII 172030Z 20002KT 5000 BR SCT020 25/23 Q1009 NOSIG
Conditions at: WIII (SOEKARNO-HATTA I, ID) observed 2030 UTC 17 October 2019
Temperature: 25.0°C (77°F)
Dewpoint: 23.0°C (73°F) [RH = 89%]
Pressure (altimeter): 29.79 inches Hg (1009.0 mb)
Winds: from the SSW (200 degrees) at 2 MPH (2 knots; 1.0 m/s)
Visibility: 3 miles ( 5 km)
Ceiling: at least 12,000 feet AGL
Clouds: scattered clouds at 2000 feet AGL
Weather: BR  (mist)

METAR text: WIII 172000Z 24004KT 5000 BR SCT020 25/23 Q1009 NOSIG
Conditions at: WIII (SOEKARNO-HATTA I, ID) observed 2000 UTC 17 October 2019
Temperature: 25.0°C (77°F)
Dewpoint: 23.0°C (73°F) [RH = 89%]
Pressure (altimeter): 29.79 inches Hg (1009.0 mb)
Winds: from the WSW (240 degrees) at 5 MPH (4 knots; 2.1 m/s)
Visibility: 3 miles ( 5 km)
Ceiling: at least 12,000 feet AGL
Clouds: scattered clouds at 2000 feet AGL
Weather: BR  (mist)

METAR text: WIII 171930Z VRB03KT 4500 BR SCT020 25/23 Q1008 NOSIG
Conditions at: WIII (SOEKARNO-HATTA I, ID) observed 1930 UTC 17 October 2019
Temperature: 25.0°C (77°F)
Dewpoint: 23.0°C (73°F) [RH = 89%]
Pressure (altimeter): 29.76 inches Hg (1008.0 mb)
Winds: variable direction winds at 3 MPH (3 knots; 1.5 m/s)
Visibility: 2.80 miles (4.51 km)
Ceiling: at least 12,000 feet AGL
Clouds: scattered clouds at 2000 feet AGL
Weather: BR  (mist)

METAR text: WIII 171900Z 26004KT 5000 BR SCT020 25/23 Q1009 NOSIG
Conditions at: WIII (SOEKARNO-HATTA I, ID) observed 1900 UTC 17 October 2019
Temperature: 25.0°C (77°F)
Dewpoint: 23.0°C (73°F) [RH = 89%]
Pressure (altimeter): 29.79 inches Hg (1009.0 mb)
Winds: from the W (260 degrees) at 5 MPH (4 knots; 2.1 m/s)
Visibility: 3 miles ( 5 km)
Ceiling: at least 12,000 feet AGL
Clouds: scattered clouds at 2000 feet AGL
Weather: BR  (mist)

METAR text: WIII 171830Z 22005KT 4500 BR BKN020 25/23 Q1009 NOSIG
Conditions at: WIII (SOEKARNO-HATTA I, ID) observed 1830 UTC 17 October 2019
Temperature: 25.0°C (77°F)
Dewpoint: 23.0°C (73°F) [RH = 89%]
Pressure (altimeter): 29.79 inches Hg (1009.0 mb)
Winds: from the SW (220 degrees) at 6 MPH (5 knots; 2.6 m/s)
Visibility: 2.80 miles (4.51 km)
Ceiling: 2000 feet AGL
Clouds: broken clouds at 2000 feet AGL
Weather: BR  (mist)

METAR text: WIII 171800Z 23007KT 4500 BR BKN020 25/24 Q1009 RERA NOSIG
Conditions at: WIII (SOEKARNO-HATTA I, ID) observed 1800 UTC 17 October 2019
Temperature: 25.0°C (77°F)
Dewpoint: 24.0°C (75°F) [RH = 94%]
Pressure (altimeter): 29.79 inches Hg (1009.0 mb)
Winds: from the SW (230 degrees) at 8 MPH (7 knots; 3.6 m/s)
Visibility: 2.80 miles (4.51 km)
Ceiling: 2000 feet AGL
Clouds: broken clouds at 2000 feet AGL
Weather: BR  (mist)

METAR text: WIII 171730Z VRB03KT 5000 -RA BKN020 26/24 Q1010 NOSIG
Conditions at: WIII (SOEKARNO-HATTA I, ID) observed 1730 UTC 17 October 2019
Temperature: 26.0°C (79°F)
Dewpoint: 24.0°C (75°F) [RH = 89%]
Pressure (altimeter): 29.82 inches Hg (1010.0 mb)
Winds: variable direction winds at 3 MPH (3 knots; 1.5 m/s)
Visibility: 3 miles ( 5 km)
Ceiling: 2000 feet AGL
Clouds: broken clouds at 2000 feet AGL
Weather: -RA  (light rain)

METAR text: WIII 171700Z VRB03KT 5000 -RA BKN020 26/24 Q1010 NOSIG
Conditions at: WIII (SOEKARNO-HATTA I, ID) observed 1700 UTC 17 October 2019
Temperature: 26.0°C (79°F)
Dewpoint: 24.0°C (75°F) [RH = 89%]
Pressure (altimeter): 29.82 inches Hg (1010.0 mb)
Winds: variable direction winds at 3 MPH (3 knots; 1.5 m/s)
Visibility: 3 miles ( 5 km)
Ceiling: 2000 feet AGL
Clouds: broken clouds at 2000 feet AGL
Weather: -RA  (light rain)

METAR text: WIII 171630Z 26003KT 5000 -RA BKN019 26/24 Q1010 NOSIG
Conditions at: WIII (SOEKARNO-HATTA I, ID) observed 1630 UTC 17 October 2019
Temperature: 26.0°C (79°F)
Dewpoint: 24.0°C (75°F) [RH = 89%]
Pressure (altimeter): 29.82 inches Hg (1010.0 mb)
Winds: from the W (260 degrees) at 3 MPH (3 knots; 1.5 m/s)
Visibility: 3 miles ( 5 km)
Ceiling: 1900 feet AGL
Clouds: broken clouds at 1900 feet AGL
Weather: -RA  (light rain)

METAR text: WIII 171600Z 21004KT 6000 BKN020 27/24 Q1010 NOSIG
Conditions at: WIII (SOEKARNO-HATTA I, ID) observed 1600 UTC 17 October 2019
Temperature: 27.0°C (81°F)
Dewpoint: 24.0°C (75°F) [RH = 84%]
Pressure (altimeter): 29.82 inches Hg (1010.0 mb)
Winds: from the SSW (210 degrees) at 5 MPH (4 knots; 2.1 m/s)
Visibility: 4 miles ( 6 km)
Ceiling: 2000 feet AGL
Clouds: broken clouds at 2000 feet AGL
Weather: no significant weather observed at this time

METAR text: WIII 171530Z 17004KT 7000 BKN020 28/24 Q1010 NOSIG
Conditions at: WIII (SOEKARNO-HATTA I, ID) observed 1530 UTC 17 October 2019
Temperature: 28.0°C (82°F)
Dewpoint: 24.0°C (75°F) [RH = 79%]
Pressure (altimeter): 29.82 inches Hg (1010.0 mb)
Winds: from the S (170 degrees) at 5 MPH (4 knots; 2.1 m/s)
Visibility: 4 miles ( 7 km)
Ceiling: 2000 feet AGL
Clouds: broken clouds at 2000 feet AGL
Weather: no significant weather observed at this time

METAR text: WIII 171500Z 05005KT 7000 SCT020 28/24 Q1010 NOSIG
Conditions at: WIII (SOEKARNO-HATTA I, ID) observed 1500 UTC 17 October 2019
Temperature: 28.0°C (82°F)
Dewpoint: 24.0°C (75°F) [RH = 79%]
Pressure (altimeter): 29.82 inches Hg (1010.0 mb)
Winds: from the NE (50 degrees) at 6 MPH (5 knots; 2.6 m/s)
Visibility: 4 miles ( 7 km)
Ceiling: at least 12,000 feet AGL
Clouds: scattered clouds at 2000 feet AGL
Weather: no significant weather observed at this time

METAR text: WIII 171430Z VRB03KT 7000 SCT020 29/24 Q1010 NOSIG
Conditions at: WIII (SOEKARNO-HATTA I, ID) observed 1430 UTC 17 October 2019
Temperature: 29.0°C (84°F)
Dewpoint: 24.0°C (75°F) [RH = 74%]
Pressure (altimeter): 29.82 inches Hg (1010.0 mb)
Winds: variable direction winds at 3 MPH (3 knots; 1.5 m/s)
Visibility: 4 miles ( 7 km)
Ceiling: at least 12,000 feet AGL
Clouds: scattered clouds at 2000 feet AGL
Weather: no significant weather observed at this time

METAR text: WIII 171400Z VRB02KT 7000 SCT020 28/24 Q1010 NOSIG
Conditions at: WIII (SOEKARNO-HATTA I, ID) observed 1400 UTC 17 October 2019
Temperature: 28.0°C (82°F)
Dewpoint: 24.0°C (75°F) [RH = 79%]
Pressure (altimeter): 29.82 inches Hg (1010.0 mb)
Winds: variable direction winds at 2 MPH (2 knots; 1.0 m/s)
Visibility: 4 miles ( 7 km)
Ceiling: at least 12,000 feet AGL
Clouds: scattered clouds at 2000 feet AGL
Weather: no significant weather observed at this time

METAR text: WIII 171330Z VRB04KT 7000 SCT020 28/24 Q1009 NOSIG
Conditions at: WIII (SOEKARNO-HATTA I, ID) observed 1330 UTC 17 October 2019
Temperature: 28.0°C (82°F)
Dewpoint: 24.0°C (75°F) [RH = 79%]
Pressure (altimeter): 29.79 inches Hg (1009.0 mb)
Winds: variable direction winds at 5 MPH (4 knots; 2.1 m/s)
Visibility: 4 miles ( 7 km)
Ceiling: at least 12,000 feet AGL
Clouds: scattered clouds at 2000 feet AGL
Weather: no significant weather observed at this time

METAR text: WIII 171300Z 03004KT 8000 SCT020 28/24 Q1009 NOSIG
Conditions at: WIII (SOEKARNO-HATTA I, ID) observed 1300 UTC 17 October 2019
Temperature: 28.0°C (82°F)
Dewpoint: 24.0°C (75°F) [RH = 79%]
Pressure (altimeter): 29.79 inches Hg (1009.0 mb)
Winds: from the NNE (30 degrees) at 5 MPH (4 knots; 2.1 m/s)
Visibility: 5 miles ( 8 km)
Ceiling: at least 12,000 feet AGL
Clouds: scattered clouds at 2000 feet AGL
Weather: no significant weather observed at this time

METAR text: WIII 171230Z VRB03KT 9000 SCT020 29/24 Q1009 NOSIG
Conditions at: WIII (SOEKARNO-HATTA I, ID) observed 1230 UTC 17 October 2019
Temperature: 29.0°C (84°F)
Dewpoint: 24.0°C (75°F) [RH = 74%]
Pressure (altimeter): 29.79 inches Hg (1009.0 mb)
Winds: variable direction winds at 3 MPH (3 knots; 1.5 m/s)
Visibility: 6 miles ( 9 km)
Ceiling: at least 12,000 feet AGL
Clouds: scattered clouds at 2000 feet AGL
Weather: no significant weather observed at this time

Forecast for: WIII (SOEKARNO-HATTA I, ID)
Text: TAF WIII 182300Z 1900/2006 02010KT 9000 SCT020
Forecast period: 0000 to 1200 UTC 19 October 2019
Forecast type: FROM: standard forecast or significant change
Winds: from the NNE (20 degrees) at 12 MPH (10 knots; 5.1 m/s)
Visibility: 6 miles (9 km)
Ceiling: at least 12,000 feet AGL
Clouds: scattered clouds at 2000 feet AGL
Weather: no significant weather forecast for this period
Text: BECMG 1912/1914 VRB02KT
Forecast period: 1200 UTC 19 October 2019 to 0200 UTC 20 October 2019
Forecast type: BECOMING: Conditions expected to become as follows by 1400 UTC 19 October 2019
Winds: variable direction winds at 2 MPH (2 knots; 1.0 m/s)
Visibility: 6 miles (9 km)
Ceiling: at least 12,000 feet AGL
Clouds: scattered clouds at 2000 feet AGL
Weather: no significant weather forecast for this period
Text: TEMPO 1915/1918 SHRA
Forecast period: 1500 to 1800 UTC 19 October 2019
Forecast type: TEMPORARY: The following changes expected for less than half the time period
Visibility: missing
Ceiling: unknown
Clouds: missing
Weather: SHRA  (rain showers)
Text: BECMG 2002/2004 03010KT
Forecast period: 0200 to 0600 UTC 20 October 2019
Forecast type: BECOMING: Conditions expected to become as follows by 0400 UTC 20 October 2019
Winds: from the NNE (30 degrees) at 12 MPH (10 knots; 5.1 m/s)
Visibility: 6 miles (9 km)
Ceiling: at least 12,000 feet AGL
Clouds: scattered clouds at 2000 feet AGL
Weather: no significant weather forecast for this period